createdAt,value
2023-02-24T00:00:32.172Z,1.58
2023-02-24T00:03:06.273Z,1.60
2023-02-24T00:05:37.088Z,1.40
2023-02-24T00:08:06.910Z,1.33
2023-02-24T00:10:37.488Z,1.50
2023-02-24T00:13:05.664Z,1.50
2023-02-24T00:15:33.693Z,1.70
2023-02-24T00:18:06.947Z,1.77
2023-02-24T00:20:35.685Z,1.38
2023-02-24T00:23:03.924Z,1.33
2023-02-24T00:25:33.300Z,1.48
2023-02-24T00:28:01.633Z,1.50
2023-02-24T00:30:31.482Z,1.27
2023-02-24T00:33:01.347Z,1.20
2023-02-24T00:35:30.311Z,1.10
2023-02-24T00:37:58.177Z,1.00
2023-02-24T00:40:26.664Z,0.85
2023-02-24T00:42:55.954Z,1.30
2023-02-24T00:45:23.892Z,1.10
2023-02-24T00:47:51.817Z,0.75
2023-02-24T00:50:20.057Z,1.02
2023-02-24T00:52:49.821Z,0.90
2023-02-24T00:55:19.202Z,0.85
2023-02-24T00:57:47.119Z,0.80
2023-02-24T01:00:19.940Z,0.70
2023-02-24T01:02:47.866Z,0.82
2023-02-24T01:05:16.052Z,0.75
2023-02-24T01:07:43.921Z,0.65
2023-02-24T01:10:13.433Z,0.70
2023-02-24T01:12:49.745Z,0.70
2023-02-24T01:15:22.444Z,0.82
2023-02-24T01:17:50.516Z,1.00
2023-02-24T01:20:19.415Z,0.90
2023-02-24T01:22:50.185Z,0.57
2023-02-24T01:25:20.265Z,0.70
2023-02-24T01:27:48.555Z,0.95
2023-02-24T01:30:18.169Z,0.80
2023-02-24T01:35:17.785Z,0.73
2023-02-24T01:37:46.295Z,0.82
2023-02-24T01:40:20.962Z,0.70
2023-02-24T01:42:49.734Z,0.70
2023-02-24T01:45:28.614Z,0.77
2023-02-24T01:48:05.231Z,0.90
2023-02-24T01:50:35.996Z,0.82
2023-02-24T01:53:07.544Z,0.73
2023-02-24T01:55:42.831Z,0.90
2023-02-24T01:58:22.590Z,0.80
2023-02-24T02:00:51.623Z,0.60
2023-02-24T02:03:29.634Z,1.00
2023-02-24T02:06:04.740Z,0.82
2023-02-24T02:08:36.411Z,0.77
2023-02-24T02:11:07.935Z,0.50
2023-02-24T02:13:40.498Z,0.90
2023-02-24T02:16:35.610Z,1.17
2023-02-24T02:19:30.876Z,0.60
2023-02-24T02:22:23.429Z,0.70
2023-02-24T02:25:01.896Z,0.80
2023-02-24T02:27:58.409Z,0.73
2023-02-24T02:31:16.850Z,0.90
2023-02-24T02:34:27.593Z,1.00
2023-02-24T02:37:06.004Z,0.60
2023-02-24T02:39:50.552Z,0.88
2023-02-24T02:42:30.593Z,0.57
2023-02-24T02:45:07.800Z,0.77
2023-02-24T02:47:43.252Z,0.70
2023-02-24T02:50:22.543Z,0.75
2023-02-24T02:52:57.011Z,0.70
2023-02-24T02:55:36.217Z,0.60
2023-02-24T02:58:10.273Z,1.20
2023-02-24T03:00:50.008Z,0.70
2023-02-24T03:03:20.400Z,0.70
2023-02-24T03:05:58.760Z,0.80
2023-02-24T03:08:34.266Z,0.70
2023-02-24T03:11:05.822Z,0.57
2023-02-24T03:13:41.440Z,0.80
2023-02-24T03:16:13.469Z,0.80
2023-02-24T03:18:50.884Z,0.80
2023-02-24T03:21:33.921Z,0.80
2023-02-24T03:24:05.632Z,0.68
2023-02-24T03:26:41.732Z,0.73
2023-02-24T03:29:18.586Z,0.80
2023-02-24T03:31:54.135Z,0.80
2023-02-24T03:34:31.060Z,0.70
2023-02-24T03:37:01.911Z,0.75
2023-02-24T03:39:30.072Z,0.88
2023-02-24T03:42:05.435Z,0.90
2023-02-24T03:44:34.049Z,0.60
2023-02-24T03:47:03.407Z,0.70
2023-02-24T03:49:32.124Z,0.70
2023-02-24T03:52:21.376Z,0.80
2023-02-24T03:55:21.374Z,0.60
2023-02-24T03:58:10.238Z,0.60
2023-02-24T04:00:52.189Z,0.88
2023-02-24T04:03:34.237Z,0.73
2023-02-24T04:06:14.165Z,0.50
2023-02-24T04:08:53.113Z,0.70
2023-02-24T04:11:30.050Z,0.70
2023-02-24T04:14:07.397Z,0.80
2023-02-24T04:16:43.070Z,0.70
2023-02-24T04:19:16.956Z,0.50
2023-02-24T04:21:49.032Z,0.75
2023-02-24T04:24:24.873Z,0.80
2023-02-24T04:26:58.849Z,0.73
2023-02-24T04:29:35.445Z,0.80
2023-02-24T04:32:08.871Z,0.63
2023-02-24T04:34:37.447Z,0.80
2023-02-24T04:37:05.470Z,0.80
2023-02-24T04:39:38.355Z,0.70
2023-02-24T04:42:07.318Z,0.60
2023-02-24T04:44:36.063Z,0.80
2023-02-24T04:47:04.791Z,0.88
2023-02-24T04:49:33.932Z,0.87
2023-02-24T04:52:01.803Z,0.70
2023-02-24T04:54:29.720Z,0.60
2023-02-24T04:56:59.473Z,0.70
2023-02-24T04:59:29.248Z,0.50
2023-02-24T05:02:01.371Z,0.70
2023-02-24T05:04:31.851Z,0.50
2023-02-24T05:07:00.239Z,0.65
2023-02-24T05:09:30.098Z,0.70
2023-02-24T05:12:00.272Z,0.60
2023-02-24T05:14:28.401Z,0.80
2023-02-24T05:17:00.213Z,0.82
2023-02-24T05:19:46.218Z,0.80
2023-02-24T05:22:16.885Z,0.60
2023-02-24T05:24:47.889Z,0.70
2023-02-24T05:27:17.382Z,0.68
2023-02-24T05:29:45.782Z,0.80
2023-02-24T05:32:16.250Z,0.73
2023-02-24T05:34:44.298Z,0.68
2023-02-24T05:37:16.553Z,0.60
2023-02-24T05:39:44.526Z,0.73
2023-02-24T05:42:12.787Z,0.52
2023-02-24T05:44:42.093Z,0.52
2023-02-24T05:47:10.525Z,0.60
2023-02-24T05:49:38.925Z,0.70
2023-02-24T05:52:09.568Z,0.70
2023-02-24T05:54:42.037Z,0.60
2023-02-24T05:57:13.414Z,0.60
2023-02-24T05:59:44.746Z,0.77
2023-02-24T06:02:15.289Z,0.77
2023-02-24T06:04:50.989Z,0.50
2023-02-24T06:07:22.805Z,0.90
2023-02-24T06:09:54.618Z,0.60
2023-02-24T06:12:24.625Z,0.60
2023-02-24T06:14:54.032Z,0.55
2023-02-24T06:17:24.317Z,0.68
2023-02-24T06:19:54.277Z,0.68
2023-02-24T06:22:25.452Z,0.70
2023-02-24T06:24:56.794Z,0.52
2023-02-24T06:27:25.777Z,0.63
2023-02-24T06:29:57.560Z,0.80
2023-02-24T06:32:27.970Z,0.70
2023-02-24T06:34:57.419Z,0.70
2023-02-24T06:37:25.631Z,0.50
2023-02-24T06:39:53.559Z,1.05
2023-02-24T06:42:21.511Z,0.70
2023-02-24T06:44:50.322Z,0.77
2023-02-24T06:47:19.681Z,0.50
2023-02-24T06:49:47.835Z,0.77
2023-02-24T06:52:18.773Z,0.65
2023-02-24T06:54:52.340Z,0.70
2023-02-24T06:57:20.648Z,0.70
2023-02-24T06:59:48.909Z,0.90
2023-02-24T07:02:17.593Z,0.70
2023-02-24T07:04:47.493Z,0.77
2023-02-24T07:07:17.211Z,0.60
2023-02-24T07:09:45.295Z,0.68
2023-02-24T07:12:15.554Z,0.70
2023-02-24T07:14:43.937Z,0.40
2023-02-24T07:17:14.677Z,0.90
2023-02-24T07:19:42.583Z,0.50
2023-02-24T07:22:14.600Z,0.65
2023-02-24T07:24:46.195Z,0.73
2023-02-24T07:27:23.136Z,0.70
2023-02-24T07:29:53.651Z,0.73
2023-02-24T07:32:23.387Z,0.60
2023-02-24T07:34:51.401Z,0.50
2023-02-24T07:37:21.024Z,0.50
2023-02-24T07:39:48.983Z,0.55
2023-02-24T07:42:17.229Z,0.60
2023-02-24T07:44:46.429Z,0.60
2023-02-24T07:47:15.802Z,0.70
2023-02-24T07:49:45.514Z,0.68
2023-02-24T07:54:43.141Z,0.85
2023-02-24T07:57:13.680Z,0.70
2023-02-24T07:59:45.441Z,0.50
2023-02-24T08:02:13.870Z,0.47
2023-02-24T08:04:49.795Z,0.70
2023-02-24T08:07:17.928Z,0.60
2023-02-24T08:10:04.031Z,0.65
2023-02-24T08:12:34.811Z,0.73
2023-02-24T08:15:08.816Z,0.85
2023-02-24T08:17:36.801Z,0.80
2023-02-24T08:20:24.790Z,0.50
2023-02-24T08:22:55.085Z,0.70
2023-02-24T08:25:35.471Z,0.70
2023-02-24T08:28:09.385Z,0.50
2023-02-24T08:30:44.701Z,0.60
2023-02-24T08:33:17.415Z,0.50
2023-02-24T08:35:45.624Z,0.60
2023-02-24T08:38:17.293Z,0.47
2023-02-24T08:40:54.884Z,0.47
2023-02-24T08:43:34.291Z,0.40
2023-02-24T08:46:18.276Z,0.60
2023-02-24T08:48:49.554Z,0.80
2023-02-24T08:51:23.743Z,0.50
2023-02-24T08:53:54.737Z,0.60
2023-02-24T08:56:28.210Z,0.60
2023-02-24T08:59:05.327Z,0.40
2023-02-24T09:01:38.070Z,0.60
2023-02-24T09:04:10.393Z,0.63
2023-02-24T09:06:44.766Z,0.60
2023-02-24T09:09:18.701Z,0.40
2023-02-24T09:11:50.785Z,0.50
2023-02-24T09:14:29.120Z,0.60
2023-02-24T09:17:06.035Z,0.70
2023-02-24T09:19:57.865Z,0.40
2023-02-24T09:22:57.239Z,0.50
2023-02-24T09:25:40.614Z,0.52
2023-02-24T09:28:17.084Z,0.40
2023-02-24T09:30:54.502Z,0.60
2023-02-24T09:33:26.208Z,0.50
2023-02-24T09:36:09.749Z,0.88
2023-02-24T09:38:53.142Z,0.60
2023-02-24T09:41:33.796Z,0.85
2023-02-24T09:44:18.300Z,0.52
2023-02-24T09:46:54.766Z,0.52
2023-02-24T09:49:39.752Z,0.60
2023-02-24T09:52:17.410Z,0.50
2023-02-24T09:55:17.543Z,0.30
2023-02-24T09:58:26.938Z,0.50
2023-02-24T10:01:21.960Z,0.60
2023-02-24T10:04:18.312Z,0.40
2023-02-24T10:06:51.510Z,0.82
2023-02-24T10:09:26.804Z,0.60
2023-02-24T10:12:04.476Z,0.50
2023-02-24T10:14:44.723Z,0.55
2023-02-24T10:17:30.480Z,0.80
2023-02-24T10:22:50.440Z,0.50
2023-02-24T10:25:41.092Z,0.70
2023-02-24T10:28:35.577Z,0.50
2023-02-24T10:31:25.433Z,0.60
2023-02-24T10:34:06.071Z,0.55
2023-02-24T10:36:36.274Z,0.50
2023-02-24T10:39:16.380Z,0.55
2023-02-24T10:41:47.950Z,0.50
2023-02-24T10:44:24.060Z,0.63
2023-02-24T10:47:12.307Z,0.60
2023-02-24T10:49:57.011Z,0.43
2023-02-24T10:52:37.679Z,0.45
2023-02-24T10:55:27.917Z,0.50
2023-02-24T10:58:06.874Z,0.60
2023-02-24T11:01:01.119Z,0.60
2023-02-24T11:03:42.609Z,0.47
2023-02-24T11:06:42.259Z,0.50
2023-02-24T11:09:35.233Z,0.50
2023-02-24T11:12:32.925Z,0.65
2023-02-24T11:15:22.766Z,0.60
2023-02-24T11:18:01.834Z,0.43
2023-02-24T11:20:48.449Z,0.60
2023-02-24T11:23:24.913Z,0.60
2023-02-24T11:25:59.274Z,0.50
2023-02-24T11:28:54.163Z,0.50
2023-02-24T11:31:44.769Z,0.80
2023-02-24T11:34:29.022Z,0.80
2023-02-24T11:37:15.613Z,0.70
2023-02-24T11:39:57.283Z,0.60
2023-02-24T11:42:33.904Z,0.47
2023-02-24T11:45:13.136Z,0.60
2023-02-24T11:47:54.233Z,0.60
2023-02-24T11:50:43.680Z,0.50
2023-02-24T11:55:59.772Z,0.70
2023-02-24T11:58:41.886Z,0.70
2023-02-24T12:01:22.385Z,0.50
2023-02-24T12:03:57.877Z,0.55
2023-02-24T12:06:35.299Z,0.40
2023-02-24T12:09:15.918Z,0.60
2023-02-24T12:11:56.029Z,0.60
2023-02-24T12:14:34.924Z,0.50
2023-02-24T12:17:18.271Z,0.68
2023-02-24T12:19:59.689Z,0.77
2023-02-24T12:22:39.956Z,0.50
2023-02-24T12:25:14.873Z,0.40
2023-02-24T12:28:02.990Z,0.57
2023-02-24T12:30:51.840Z,0.70
2023-02-24T12:33:43.893Z,0.70
2023-02-24T12:36:30.910Z,0.50
2023-02-24T12:39:13.517Z,0.60
2023-02-24T12:42:08.473Z,0.60
2023-02-24T12:44:54.824Z,0.60
2023-02-24T12:47:43.036Z,0.50
2023-02-24T12:50:32.217Z,0.63
2023-02-24T12:53:18.747Z,0.50
2023-02-24T12:56:02.532Z,0.57
2023-02-24T12:58:36.996Z,0.50
2023-02-24T13:01:23.455Z,0.50
2023-02-24T13:04:26.931Z,0.80
2023-02-24T13:07:11.065Z,0.68
2023-02-24T13:09:52.260Z,0.60
2023-02-24T13:12:33.735Z,0.50
2023-02-24T13:15:04.451Z,0.57
2023-02-24T13:17:33.793Z,0.50
2023-02-24T13:20:15.407Z,0.70
2023-02-24T13:22:44.622Z,0.60
2023-02-24T13:25:23.575Z,0.60
2023-02-24T13:28:04.586Z,0.75
2023-02-24T13:30:39.913Z,0.50
2023-02-24T13:33:26.144Z,0.45
2023-02-24T13:36:12.621Z,0.50
2023-02-24T13:38:43.874Z,0.40
2023-02-24T13:41:40.543Z,0.60
2023-02-24T13:44:28.820Z,0.40
2023-02-24T13:47:50.268Z,0.82
2023-02-24T13:50:28.008Z,0.68
2023-02-24T13:53:28.070Z,0.70
2023-02-24T13:56:17.968Z,0.40
2023-02-24T13:59:09.301Z,0.77
2023-02-24T14:01:50.910Z,0.57
2023-02-24T14:04:26.416Z,0.60
2023-02-24T14:07:02.608Z,0.50
2023-02-24T14:09:38.434Z,0.57
2023-02-24T14:12:15.059Z,0.50
2023-02-24T14:14:45.638Z,0.68
2023-02-24T14:17:28.221Z,0.52
2023-02-24T14:20:08.575Z,0.60
2023-02-24T14:22:45.164Z,0.40
2023-02-24T14:25:15.688Z,0.40
2023-02-24T14:27:46.966Z,0.60
2023-02-24T14:30:26.825Z,0.40
2023-02-24T14:32:55.650Z,0.50
2023-02-24T14:35:33.762Z,0.60
2023-02-24T14:38:04.255Z,0.75
2023-02-24T14:40:33.402Z,0.50
2023-02-24T14:43:03.600Z,0.40
2023-02-24T14:45:31.530Z,0.40
2023-02-24T14:47:59.477Z,0.45
2023-02-24T14:50:34.059Z,0.50
2023-02-24T14:53:13.272Z,0.30
2023-02-24T14:55:48.012Z,0.30
2023-02-24T14:58:23.929Z,0.50
2023-02-24T15:00:59.661Z,0.55
2023-02-24T15:03:33.711Z,0.40
2023-02-24T15:06:07.788Z,0.50
2023-02-24T15:08:40.851Z,0.63
2023-02-24T15:11:21.827Z,0.40
2023-02-24T15:13:55.146Z,0.30
2023-02-24T15:16:28.447Z,0.40
2023-02-24T15:19:01.243Z,0.30
2023-02-24T15:21:32.940Z,0.30
2023-02-24T15:24:05.661Z,0.40
2023-02-24T15:26:36.152Z,0.40
2023-02-24T15:29:15.619Z,0.60
2023-02-24T15:34:21.974Z,0.52
2023-02-24T15:36:55.372Z,0.50
2023-02-24T15:39:31.087Z,0.30
2023-02-24T15:42:09.461Z,0.40
2023-02-24T15:44:38.177Z,0.52
2023-02-24T15:47:23.434Z,0.50
2023-02-24T15:49:51.367Z,0.32
2023-02-24T15:52:27.256Z,0.50
2023-02-24T15:55:00.428Z,0.30
2023-02-24T15:57:32.436Z,0.47
2023-02-24T16:00:01.255Z,0.43
2023-02-24T16:02:29.757Z,0.50
2023-02-24T16:04:57.717Z,0.57
2023-02-24T16:07:31.928Z,0.57
2023-02-24T16:10:02.887Z,0.45
2023-02-24T16:12:36.384Z,0.50
2023-02-24T16:15:14.625Z,0.50
2023-02-24T16:17:43.972Z,0.60
2023-02-24T16:20:16.069Z,0.60
2023-02-24T16:22:44.180Z,0.60
2023-02-24T16:25:17.307Z,0.60
2023-02-24T16:27:45.454Z,0.52
2023-02-24T16:30:21.420Z,0.65
2023-02-24T16:32:50.578Z,0.50
2023-02-24T16:35:18.758Z,0.55
2023-02-24T16:37:48.514Z,0.57
2023-02-24T16:40:23.529Z,0.50
2023-02-24T16:42:53.764Z,0.60
2023-02-24T16:45:22.500Z,0.45
2023-02-24T16:47:51.126Z,0.32
2023-02-24T16:50:24.664Z,0.53
2023-02-24T16:52:52.645Z,0.40
2023-02-24T16:55:23.139Z,0.40
2023-02-24T16:57:51.056Z,0.40
2023-02-24T17:00:24.393Z,0.60
2023-02-24T17:02:53.788Z,0.45
2023-02-24T17:05:25.423Z,0.50
2023-02-24T17:07:57.174Z,0.70
2023-02-24T17:10:27.146Z,0.70
2023-02-24T17:12:55.071Z,0.55
2023-02-24T17:15:25.494Z,0.47
2023-02-24T17:17:53.586Z,0.50
2023-02-24T17:20:22.264Z,0.32
2023-02-24T17:22:50.238Z,0.63
2023-02-24T17:25:21.605Z,0.40
2023-02-24T17:27:50.924Z,0.45
2023-02-24T17:30:23.007Z,0.40
2023-02-24T17:32:51.367Z,0.57
2023-02-24T17:35:20.335Z,0.30
2023-02-24T17:38:25.652Z,0.50
2023-02-24T17:40:55.612Z,0.70
2023-02-24T17:43:25.141Z,0.40
2023-02-24T17:48:23.124Z,0.30
2023-02-24T17:50:51.933Z,0.40
2023-02-24T17:53:19.985Z,0.30
2023-02-24T17:56:01.988Z,0.30
2023-02-24T17:58:33.417Z,0.50
2023-02-24T18:01:02.806Z,0.47
2023-02-24T18:03:34.184Z,0.60
2023-02-24T18:06:05.297Z,0.40
2023-02-24T18:08:35.310Z,0.50
2023-02-24T18:11:03.839Z,0.40
2023-02-24T18:13:34.419Z,0.50
2023-02-24T18:16:02.743Z,0.32
2023-02-24T18:18:31.274Z,0.40
2023-02-24T18:21:02.855Z,0.38
2023-02-24T18:23:31.444Z,0.30
2023-02-24T18:26:03.674Z,0.43
2023-02-24T18:28:34.524Z,0.40
2023-02-24T18:31:03.437Z,0.50
2023-02-24T18:33:31.575Z,0.30
2023-02-24T18:36:00.393Z,0.40
2023-02-24T18:38:29.275Z,0.70
2023-02-24T18:41:02.397Z,0.40
2023-02-24T18:43:33.242Z,0.40
2023-02-24T18:46:03.728Z,0.50
2023-02-24T18:48:33.898Z,0.43
2023-02-24T18:51:02.864Z,0.50
2023-02-24T18:53:35.741Z,0.40
2023-02-24T18:56:06.566Z,0.50
2023-02-24T18:58:39.331Z,0.40
2023-02-24T19:01:13.207Z,0.47
2023-02-24T19:03:41.799Z,0.60
2023-02-24T19:06:10.533Z,0.40
2023-02-24T19:08:39.529Z,0.47
2023-02-24T19:11:12.884Z,0.40
2023-02-24T19:13:42.401Z,0.47
2023-02-24T19:16:11.521Z,0.40
2023-02-24T19:18:39.803Z,0.50
2023-02-24T19:21:09.946Z,0.47
2023-02-24T19:23:39.296Z,0.60
2023-02-24T19:26:08.047Z,0.50
2023-02-24T19:28:36.019Z,0.30
2023-02-24T19:31:05.625Z,0.40
2023-02-24T19:33:33.618Z,0.40
2023-02-24T19:36:01.675Z,0.40
2023-02-24T19:38:29.645Z,0.40
2023-02-24T19:40:59.885Z,0.50
2023-02-24T19:43:28.001Z,0.50
2023-02-24T19:45:55.978Z,0.50
2023-02-24T19:48:25.408Z,0.50
2023-02-24T19:50:53.342Z,0.50
2023-02-24T19:53:21.313Z,0.40
2023-02-24T19:55:50.319Z,0.60
2023-02-24T19:58:18.449Z,0.60
2023-02-24T20:00:48.046Z,0.40
2023-02-24T20:03:16.380Z,0.55
2023-02-24T20:05:45.789Z,0.50
2023-02-24T20:08:13.843Z,0.50
2023-02-24T20:10:41.788Z,0.45
2023-02-24T20:13:09.743Z,0.40
2023-02-24T20:15:37.814Z,0.70
2023-02-24T20:18:08.707Z,0.47
2023-02-24T20:20:37.368Z,0.50
2023-02-24T20:23:06.615Z,0.50
2023-02-24T20:25:34.631Z,0.50
2023-02-24T20:28:02.948Z,0.40
2023-02-24T20:30:30.874Z,0.47
2023-02-24T20:32:59.549Z,0.50
2023-02-24T20:35:28.312Z,0.47
2023-02-24T20:37:56.292Z,0.40
2023-02-24T20:40:25.670Z,0.40
2023-02-24T20:42:53.564Z,0.47
2023-02-24T20:45:21.586Z,0.50
2023-02-24T20:47:49.503Z,0.60
2023-02-24T20:50:17.686Z,0.55
2023-02-24T20:52:45.638Z,0.50
2023-02-24T20:55:13.723Z,0.40
2023-02-24T20:57:42.973Z,0.45
2023-02-24T21:00:13.071Z,0.70
2023-02-24T21:02:41.278Z,0.40
2023-02-24T21:05:10.985Z,0.35
2023-02-24T21:07:39.783Z,0.20
2023-02-24T21:10:08.510Z,0.50
2023-02-24T21:12:36.480Z,0.35
2023-02-24T21:15:07.404Z,0.25
2023-02-24T21:17:35.444Z,0.50
2023-02-24T21:20:03.476Z,0.40
2023-02-24T21:22:31.969Z,0.40
2023-02-24T21:25:00.455Z,0.45
2023-02-24T21:27:28.407Z,0.50
2023-02-24T21:29:56.341Z,0.35
2023-02-24T21:32:25.651Z,0.50
2023-02-24T21:34:53.626Z,0.43
2023-02-24T21:37:21.604Z,0.60
2023-02-24T21:39:49.744Z,0.43
2023-02-24T21:42:17.757Z,0.50
2023-02-24T21:44:45.701Z,0.32
2023-02-24T21:47:13.624Z,0.60
2023-02-24T21:49:44.116Z,0.40
2023-02-24T21:52:12.171Z,0.50
2023-02-24T21:54:40.326Z,0.40
2023-02-24T21:57:09.210Z,0.47
2023-02-24T21:59:37.112Z,0.50
2023-02-24T22:02:05.358Z,0.47
2023-02-24T22:04:33.656Z,0.30
2023-02-24T22:07:02.927Z,0.57
2023-02-24T22:09:30.853Z,0.40
2023-02-24T22:11:58.724Z,0.43
2023-02-24T22:14:26.670Z,0.40
2023-02-24T22:16:54.615Z,0.40
2023-02-24T22:19:22.627Z,0.43
2023-02-24T22:21:50.575Z,0.60
2023-02-24T22:24:19.935Z,0.40
2023-02-24T22:26:47.816Z,0.43
2023-02-24T22:29:15.693Z,0.30
2023-02-24T22:31:47.618Z,0.40
2023-02-24T22:34:17.118Z,0.50
2023-02-24T22:36:45.162Z,0.50
2023-02-24T22:39:16.430Z,0.50
2023-02-24T22:41:47.392Z,0.43
2023-02-24T22:44:19.039Z,0.32
2023-02-24T22:46:47.751Z,0.50
2023-02-24T22:49:15.783Z,0.38
2023-02-24T22:51:43.676Z,0.55
2023-02-24T22:54:11.534Z,0.55
2023-02-24T22:56:39.458Z,0.40
2023-02-24T22:59:08.742Z,0.43
2023-02-24T23:01:38.399Z,0.55
2023-02-24T23:06:36.977Z,0.60
2023-02-24T23:09:07.195Z,0.60
2023-02-24T23:11:38.995Z,0.50
2023-02-24T23:14:13.684Z,0.50
2023-02-24T23:16:44.342Z,0.40
2023-02-24T23:19:16.013Z,0.50
2023-02-24T23:21:47.484Z,0.50
2023-02-24T23:24:17.579Z,0.50
2023-02-24T23:26:48.969Z,0.57
2023-02-24T23:29:21.275Z,0.45
2023-02-24T23:31:49.516Z,0.40
2023-02-24T23:34:17.724Z,0.50
2023-02-24T23:36:47.931Z,0.60
2023-02-24T23:39:21.320Z,0.50
2023-02-24T23:41:49.483Z,0.40
2023-02-24T23:44:18.696Z,0.57
2023-02-24T23:46:46.655Z,0.57
2023-02-24T23:49:14.596Z,0.30
2023-02-24T23:51:48.578Z,0.30
2023-02-24T23:54:18.423Z,0.30
2023-02-24T23:56:46.907Z,0.50
2023-02-24T23:59:15.900Z,0.45
